createdAt,value
2023-03-22T00:00:31.348Z,80.30
2023-03-22T00:06:58.028Z,80.54
2023-03-22T00:13:35.491Z,80.45
2023-03-22T00:20:13.948Z,80.25
2023-03-22T00:27:10.148Z,80.36
2023-03-22T00:33:44.184Z,80.69
2023-03-22T00:40:26.930Z,80.86
2023-03-22T00:47:30.476Z,81.03
2023-03-22T00:54:33.074Z,80.92
2023-03-22T01:01:40.761Z,80.98
2023-03-22T01:08:05.939Z,81.11
2023-03-22T01:14:45.385Z,81.09
2023-03-22T01:21:48.618Z,81.29
2023-03-22T01:28:27.846Z,82.29
2023-03-22T01:35:38.399Z,82.50
2023-03-22T01:42:42.807Z,82.96
2023-03-22T01:49:33.351Z,82.76
2023-03-22T01:56:36.260Z,82.69
2023-03-22T02:03:39.212Z,81.94
2023-03-22T02:10:43.134Z,81.20
2023-03-22T02:17:45.125Z,81.88
2023-03-22T02:25:07.379Z,82.43
2023-03-22T02:32:25.362Z,82.31
2023-03-22T02:39:31.136Z,82.22
2023-03-22T02:46:33.080Z,82.63
2023-03-22T02:54:09.953Z,83.23
2023-03-22T03:01:16.124Z,83.05
2023-03-22T03:08:18.950Z,83.18
2023-03-22T03:15:11.016Z,83.36
2023-03-22T03:22:17.607Z,83.28
2023-03-22T03:29:35.549Z,83.69
2023-03-22T03:36:51.694Z,83.05
2023-03-22T03:43:54.510Z,82.26
2023-03-22T03:50:57.618Z,82.71
2023-03-22T03:58:00.472Z,82.57
2023-03-22T04:05:09.414Z,82.81
2023-03-22T04:12:24.291Z,82.63
2023-03-22T04:19:45.628Z,82.04
2023-03-22T04:26:48.204Z,82.34
2023-03-22T04:33:21.054Z,81.80
2023-03-22T04:40:38.525Z,81.98
2023-03-22T04:47:23.918Z,82.46
2023-03-22T04:54:26.820Z,82.58
2023-03-22T05:01:32.386Z,82.75
2023-03-22T05:08:17.491Z,82.93
2023-03-22T05:15:05.518Z,82.57
2023-03-22T05:21:58.549Z,82.50
2023-03-22T05:29:01.600Z,82.15
2023-03-22T05:35:44.664Z,81.97
2023-03-22T05:42:00.575Z,82.14
2023-03-22T05:47:41.972Z,82.02
2023-03-22T05:53:21.298Z,81.37
2023-03-22T05:59:11.753Z,81.68
2023-03-22T06:05:21.254Z,81.55
2023-03-22T06:11:25.079Z,80.99
2023-03-22T06:17:38.837Z,80.92
2023-03-22T06:24:21.621Z,81.10
2023-03-22T06:31:30.197Z,80.66
2023-03-22T06:38:34.713Z,80.80
2023-03-22T06:45:35.436Z,80.83
2023-03-22T06:52:07.289Z,80.61
2023-03-22T06:59:11.461Z,80.51
2023-03-22T07:05:08.522Z,79.52
2023-03-22T07:11:27.773Z,79.48
2023-03-22T07:18:33.277Z,78.44
2023-03-22T07:24:59.396Z,77.92
2023-03-22T07:31:44.419Z,76.80
2023-03-22T07:38:47.705Z,75.55
2023-03-22T07:45:42.385Z,74.09
2023-03-22T07:52:43.888Z,74.18
2023-03-22T07:59:13.767Z,73.34
2023-03-22T08:06:12.131Z,72.84
2023-03-22T08:12:33.358Z,71.93
2023-03-22T08:18:47.799Z,71.57
2023-03-22T08:25:22.394Z,70.75
2023-03-22T08:32:25.983Z,70.32
2023-03-22T08:39:06.466Z,70.39
2023-03-22T08:45:56.768Z,68.46
2023-03-22T08:52:41.387Z,67.85
2023-03-22T08:59:23.144Z,64.70
2023-03-22T09:06:24.830Z,63.61
2023-03-22T09:13:18.807Z,64.22
2023-03-22T09:19:36.911Z,61.35
2023-03-22T09:32:32.115Z,61.80
2023-03-22T09:38:32.422Z,59.86
2023-03-22T09:45:18.886Z,60.41
2023-03-22T09:51:20.208Z,58.78
2023-03-22T09:57:39.171Z,55.99
2023-03-22T10:04:06.329Z,56.21
2023-03-22T10:10:02.579Z,56.91
2023-03-22T10:16:35.491Z,56.00
2023-03-22T10:22:39.432Z,56.98
2023-03-22T10:28:30.375Z,55.70
2023-03-22T10:34:47.186Z,55.10
2023-03-22T10:41:18.025Z,54.06
2023-03-22T10:47:11.201Z,51.97
2023-03-22T10:54:03.137Z,51.09
2023-03-22T11:00:49.036Z,48.57
2023-03-22T11:06:38.278Z,48.38
2023-03-22T11:12:07.242Z,48.97
2023-03-22T11:18:15.788Z,46.37
2023-03-22T11:24:01.970Z,46.69
2023-03-22T11:29:48.036Z,47.61
2023-03-22T11:35:28.709Z,45.45
2023-03-22T11:41:29.128Z,45.29
2023-03-22T11:46:55.979Z,46.25
2023-03-22T11:52:52.651Z,46.00
2023-03-22T11:59:28.853Z,45.47
2023-03-22T12:04:46.668Z,46.57
2023-03-22T12:11:20.469Z,46.18
2023-03-22T12:17:34.945Z,44.00
2023-03-22T12:24:00.209Z,42.73
2023-03-22T12:29:52.948Z,42.96
2023-03-22T12:35:51.177Z,41.08
2023-03-22T12:41:28.969Z,41.48
2023-03-22T12:46:59.711Z,42.76
2023-03-22T12:53:10.480Z,40.74
2023-03-22T12:58:31.017Z,41.52
2023-03-22T13:03:50.059Z,40.21
2023-03-22T13:09:47.906Z,39.20
2023-03-22T13:15:34.885Z,39.21
2023-03-22T13:21:39.485Z,40.47
2023-03-22T13:28:06.105Z,41.62
2023-03-22T13:33:29.377Z,41.99
2023-03-22T13:39:14.139Z,42.57
2023-03-22T13:45:35.934Z,43.52
2023-03-22T13:51:55.861Z,44.22
2023-03-22T13:57:58.916Z,44.26
2023-03-22T14:03:48.513Z,44.18
2023-03-22T14:09:54.845Z,43.64
2023-03-22T14:15:23.004Z,43.89
2023-03-22T14:20:55.137Z,44.61
